sensor_id;sensor_type;location;lat;lon;timestamp;temperature;humidity
19050;DHT22;9657;45.940;12.840;2022-12-20T00:00:04;10.30;72.20
19050;DHT22;9657;45.940;12.840;2022-12-20T00:02:33;10.30;72.20
19050;DHT22;9657;45.940;12.840;2022-12-20T00:05:00;10.30;72.20
19050;DHT22;9657;45.940;12.840;2022-12-20T00:07:27;10.30;72.20
19050;DHT22;9657;45.940;12.840;2022-12-20T00:09:54;10.30;72.20
19050;DHT22;9657;45.940;12.840;2022-12-20T00:12:22;10.30;72.20
19050;DHT22;9657;45.940;12.840;2022-12-20T00:14:49;10.30;72.20
19050;DHT22;9657;45.940;12.840;2022-12-20T00:17:16;10.30;72.20
19050;DHT22;9657;45.940;12.840;2022-12-20T00:19:44;10.30;72.10
19050;DHT22;9657;45.940;12.840;2022-12-20T00:22:11;10.30;72.20
19050;DHT22;9657;45.940;12.840;2022-12-20T00:24:38;10.30;72.20
19050;DHT22;9657;45.940;12.840;2022-12-20T00:27:05;10.30;72.20
19050;DHT22;9657;45.940;12.840;2022-12-20T00:29:32;10.30;72.10
19050;DHT22;9657;45.940;12.840;2022-12-20T00:31:59;10.30;72.10
19050;DHT22;9657;45.940;12.840;2022-12-20T00:34:26;10.30;72.10
19050;DHT22;9657;45.940;12.840;2022-12-20T00:36:55;10.30;72.10
19050;DHT22;9657;45.940;12.840;2022-12-20T00:39:22;10.30;72.10
19050;DHT22;9657;45.940;12.840;2022-12-20T00:41:49;10.30;72.10
19050;DHT22;9657;45.940;12.840;2022-12-20T00:44:16;10.30;72.10
19050;DHT22;9657;45.940;12.840;2022-12-20T00:46:43;10.30;72.20
19050;DHT22;9657;45.940;12.840;2022-12-20T00:49:10;10.30;72.10
19050;DHT22;9657;45.940;12.840;2022-12-20T00:51:37;10.30;72.10
19050;DHT22;9657;45.940;12.840;2022-12-20T00:54:05;10.30;72.10
19050;DHT22;9657;45.940;12.840;2022-12-20T00:56:32;10.30;72.10
19050;DHT22;9657;45.940;12.840;2022-12-20T00:58:59;10.30;72.10
19050;DHT22;9657;45.940;12.840;2022-12-20T01:01:28;10.30;72.00
19050;DHT22;9657;45.940;12.840;2022-12-20T01:03:56;10.30;72.10
19050;DHT22;9657;45.940;12.840;2022-12-20T01:06:24;10.30;72.10
19050;DHT22;9657;45.940;12.840;2022-12-20T01:08:51;10.30;72.10
19050;DHT22;9657;45.940;12.840;2022-12-20T01:11:21;10.30;72.00
19050;DHT22;9657;45.940;12.840;2022-12-20T01:13:49;10.30;72.00
19050;DHT22;9657;45.940;12.840;2022-12-20T01:16:19;10.30;72.00
19050;DHT22;9657;45.940;12.840;2022-12-20T01:18:47;10.30;72.00
19050;DHT22;9657;45.940;12.840;2022-12-20T01:21:16;10.30;72.10
19050;DHT22;9657;45.940;12.840;2022-12-20T01:23:43;10.30;72.10
19050;DHT22;9657;45.940;12.840;2022-12-20T01:26:12;10.30;72.00
19050;DHT22;9657;45.940;12.840;2022-12-20T01:28:42;10.30;72.00
19050;DHT22;9657;45.940;12.840;2022-12-20T01:31:11;10.30;72.80
19050;DHT22;9657;45.940;12.840;2022-12-20T01:33:39;10.30;72.00
19050;DHT22;9657;45.940;12.840;2022-12-20T01:36:09;10.30;72.00
19050;DHT22;9657;45.940;12.840;2022-12-20T01:38:36;10.30;72.00
19050;DHT22;9657;45.940;12.840;2022-12-20T01:41:04;10.30;72.00
19050;DHT22;9657;45.940;12.840;2022-12-20T01:43:47;10.20;71.90
19050;DHT22;9657;45.940;12.840;2022-12-20T01:46:15;10.30;72.00
19050;DHT22;9657;45.940;12.840;2022-12-20T01:48:45;10.30;72.00
19050;DHT22;9657;45.940;12.840;2022-12-20T01:51:15;10.30;72.00
19050;DHT22;9657;45.940;12.840;2022-12-20T01:53:43;10.20;71.90
19050;DHT22;9657;45.940;12.840;2022-12-20T01:56:10;10.30;72.00
19050;DHT22;9657;45.940;12.840;2022-12-20T01:58:38;10.30;72.80
19050;DHT22;9657;45.940;12.840;2022-12-20T02:03:44;10.30;72.10
19050;DHT22;9657;45.940;12.840;2022-12-20T02:06:17;10.20;71.90
19050;DHT22;9657;45.940;12.840;2022-12-20T02:08:45;10.30;72.00
19050;DHT22;9657;45.940;12.840;2022-12-20T02:11:27;10.30;72.10
19050;DHT22;9657;45.940;12.840;2022-12-20T02:14:07;10.30;72.00
19050;DHT22;9657;45.940;12.840;2022-12-20T02:16:39;10.30;72.00
19050;DHT22;9657;45.940;12.840;2022-12-20T02:19:24;10.20;71.90
19050;DHT22;9657;45.940;12.840;2022-12-20T02:22:03;10.30;72.00
19050;DHT22;9657;45.940;12.840;2022-12-20T02:27:56;10.20;71.90
19050;DHT22;9657;45.940;12.840;2022-12-20T02:30:31;10.20;71.90
19050;DHT22;9657;45.940;12.840;2022-12-20T02:33:02;10.20;71.90
19050;DHT22;9657;45.940;12.840;2022-12-20T02:35:31;10.20;71.90
19050;DHT22;9657;45.940;12.840;2022-12-20T02:38:00;10.20;71.90
19050;DHT22;9657;45.940;12.840;2022-12-20T02:40:33;10.20;71.90
19050;DHT22;9657;45.940;12.840;2022-12-20T02:43:05;10.20;71.90
19050;DHT22;9657;45.940;12.840;2022-12-20T02:45:56;10.20;71.90
19050;DHT22;9657;45.940;12.840;2022-12-20T02:48:24;10.20;71.90
19050;DHT22;9657;45.940;12.840;2022-12-20T02:50:53;10.20;71.90
19050;DHT22;9657;45.940;12.840;2022-12-20T02:53:22;10.20;71.90
19050;DHT22;9657;45.940;12.840;2022-12-20T02:55:53;10.20;71.90
19050;DHT22;9657;45.940;12.840;2022-12-20T02:58:27;10.20;71.90
19050;DHT22;9657;45.940;12.840;2022-12-20T03:00:59;10.20;71.90
19050;DHT22;9657;45.940;12.840;2022-12-20T03:03:29;10.30;72.00
19050;DHT22;9657;45.940;12.840;2022-12-20T03:05:57;10.20;71.90
19050;DHT22;9657;45.940;12.840;2022-12-20T03:08:24;10.20;71.90
19050;DHT22;9657;45.940;12.840;2022-12-20T03:10:52;10.20;71.90
19050;DHT22;9657;45.940;12.840;2022-12-20T03:13:21;10.20;71.90
19050;DHT22;9657;45.940;12.840;2022-12-20T03:15:48;10.20;71.90
19050;DHT22;9657;45.940;12.840;2022-12-20T03:18:16;10.20;71.90
19050;DHT22;9657;45.940;12.840;2022-12-20T03:20:43;10.20;71.90
19050;DHT22;9657;45.940;12.840;2022-12-20T03:23:11;10.30;71.90
19050;DHT22;9657;45.940;12.840;2022-12-20T03:25:38;10.20;71.90
19050;DHT22;9657;45.940;12.840;2022-12-20T03:28:05;10.20;71.80
19050;DHT22;9657;45.940;12.840;2022-12-20T03:30:32;10.20;71.80
19050;DHT22;9657;45.940;12.840;2022-12-20T03:32:59;10.20;71.80
19050;DHT22;9657;45.940;12.840;2022-12-20T03:35:27;10.20;71.80
19050;DHT22;9657;45.940;12.840;2022-12-20T03:37:54;10.20;71.90
19050;DHT22;9657;45.940;12.840;2022-12-20T03:40:21;10.20;71.80
19050;DHT22;9657;45.940;12.840;2022-12-20T03:42:48;10.20;71.80
19050;DHT22;9657;45.940;12.840;2022-12-20T03:45:16;10.20;71.80
19050;DHT22;9657;45.940;12.840;2022-12-20T03:47:43;10.30;71.90
19050;DHT22;9657;45.940;12.840;2022-12-20T03:50:10;10.20;71.80
19050;DHT22;9657;45.940;12.840;2022-12-20T03:52:39;10.20;71.80
19050;DHT22;9657;45.940;12.840;2022-12-20T03:55:07;10.20;71.80
19050;DHT22;9657;45.940;12.840;2022-12-20T03:57:37;10.20;71.80
19050;DHT22;9657;45.940;12.840;2022-12-20T04:00:05;10.20;72.60
19050;DHT22;9657;45.940;12.840;2022-12-20T04:02:32;10.20;71.80
19050;DHT22;9657;45.940;12.840;2022-12-20T04:04:59;10.20;71.80
19050;DHT22;9657;45.940;12.840;2022-12-20T04:07:26;10.20;72.60
19050;DHT22;9657;45.940;12.840;2022-12-20T04:09:54;10.20;71.80
19050;DHT22;9657;45.940;12.840;2022-12-20T04:12:22;10.20;71.80
19050;DHT22;9657;45.940;12.840;2022-12-20T04:14:49;10.20;71.80
19050;DHT22;9657;45.940;12.840;2022-12-20T04:17:15;10.20;71.80
19050;DHT22;9657;45.940;12.840;2022-12-20T04:19:43;10.20;71.80
19050;DHT22;9657;45.940;12.840;2022-12-20T04:22:10;10.20;71.80
19050;DHT22;9657;45.940;12.840;2022-12-20T04:24:37;10.20;71.80
19050;DHT22;9657;45.940;12.840;2022-12-20T04:27:05;10.20;71.70
19050;DHT22;9657;45.940;12.840;2022-12-20T04:29:32;10.20;71.70
19050;DHT22;9657;45.940;12.840;2022-12-20T04:31:59;10.20;71.70
19050;DHT22;9657;45.940;12.840;2022-12-20T04:34:26;10.20;71.70
19050;DHT22;9657;45.940;12.840;2022-12-20T04:36:53;10.20;71.80
19050;DHT22;9657;45.940;12.840;2022-12-20T04:39:20;10.20;71.70
19050;DHT22;9657;45.940;12.840;2022-12-20T04:41:47;10.20;71.70
19050;DHT22;9657;45.940;12.840;2022-12-20T04:44:16;10.20;71.70
19050;DHT22;9657;45.940;12.840;2022-12-20T04:46:43;10.20;71.70
19050;DHT22;9657;45.940;12.840;2022-12-20T04:49:10;10.20;71.70
19050;DHT22;9657;45.940;12.840;2022-12-20T04:51:37;10.20;71.70
19050;DHT22;9657;45.940;12.840;2022-12-20T04:54:04;10.20;71.70
19050;DHT22;9657;45.940;12.840;2022-12-20T04:56:30;10.20;71.70
19050;DHT22;9657;45.940;12.840;2022-12-20T04:58:58;10.20;71.70
19050;DHT22;9657;45.940;12.840;2022-12-20T05:01:26;10.20;71.70
19050;DHT22;9657;45.940;12.840;2022-12-20T05:03:54;10.20;71.70
19050;DHT22;9657;45.940;12.840;2022-12-20T05:06:21;10.20;71.70
19050;DHT22;9657;45.940;12.840;2022-12-20T05:08:48;10.20;71.60
19050;DHT22;9657;45.940;12.840;2022-12-20T05:11:15;10.20;71.60
19050;DHT22;9657;45.940;12.840;2022-12-20T05:13:42;10.20;71.70
19050;DHT22;9657;45.940;12.840;2022-12-20T05:16:09;10.20;71.70
19050;DHT22;9657;45.940;12.840;2022-12-20T05:18:37;10.20;71.60
19050;DHT22;9657;45.940;12.840;2022-12-20T05:21:05;10.20;71.60
19050;DHT22;9657;45.940;12.840;2022-12-20T05:23:49;10.20;71.60
19050;DHT22;9657;45.940;12.840;2022-12-20T05:26:35;10.20;71.70
19050;DHT22;9657;45.940;12.840;2022-12-20T05:29:03;10.20;71.60
19050;DHT22;9657;45.940;12.840;2022-12-20T05:31:30;10.20;71.60
19050;DHT22;9657;45.940;12.840;2022-12-20T05:33:59;10.20;71.60
19050;DHT22;9657;45.940;12.840;2022-12-20T05:36:26;10.20;71.60
19050;DHT22;9657;45.940;12.840;2022-12-20T05:38:53;10.20;71.60
19050;DHT22;9657;45.940;12.840;2022-12-20T05:41:20;10.20;71.60
19050;DHT22;9657;45.940;12.840;2022-12-20T05:43:47;10.20;71.60
19050;DHT22;9657;45.940;12.840;2022-12-20T05:46:14;10.20;71.60
19050;DHT22;9657;45.940;12.840;2022-12-20T05:48:41;10.20;71.60
19050;DHT22;9657;45.940;12.840;2022-12-20T05:51:09;10.20;71.60
19050;DHT22;9657;45.940;12.840;2022-12-20T05:53:36;10.20;71.60
19050;DHT22;9657;45.940;12.840;2022-12-20T05:56:04;10.10;71.50
19050;DHT22;9657;45.940;12.840;2022-12-20T05:58:31;10.10;71.60
19050;DHT22;9657;45.940;12.840;2022-12-20T06:00:59;10.20;71.60
19050;DHT22;9657;45.940;12.840;2022-12-20T06:03:27;10.20;71.60
19050;DHT22;9657;45.940;12.840;2022-12-20T06:05:55;10.10;71.50
19050;DHT22;9657;45.940;12.840;2022-12-20T06:08:24;10.10;71.50
19050;DHT22;9657;45.940;12.840;2022-12-20T06:10:51;10.10;71.50
19050;DHT22;9657;45.940;12.840;2022-12-20T06:13:19;10.10;72.30
19050;DHT22;9657;45.940;12.840;2022-12-20T06:15:46;10.10;71.60
19050;DHT22;9657;45.940;12.840;2022-12-20T06:18:13;10.10;71.50
19050;DHT22;9657;45.940;12.840;2022-12-20T06:20:40;10.10;71.50
19050;DHT22;9657;45.940;12.840;2022-12-20T06:23:07;10.10;71.50
19050;DHT22;9657;45.940;12.840;2022-12-20T06:25:36;10.10;71.50
19050;DHT22;9657;45.940;12.840;2022-12-20T06:28:04;10.10;71.50
19050;DHT22;9657;45.940;12.840;2022-12-20T06:30:32;10.10;71.50
19050;DHT22;9657;45.940;12.840;2022-12-20T06:32:59;10.10;71.50
19050;DHT22;9657;45.940;12.840;2022-12-20T06:35:27;10.10;71.50
19050;DHT22;9657;45.940;12.840;2022-12-20T06:37:54;10.10;71.50
19050;DHT22;9657;45.940;12.840;2022-12-20T06:40:21;10.10;71.50
19050;DHT22;9657;45.940;12.840;2022-12-20T06:42:50;10.10;71.50
19050;DHT22;9657;45.940;12.840;2022-12-20T06:45:17;10.10;71.50
19050;DHT22;9657;45.940;12.840;2022-12-20T06:47:44;10.10;71.50
19050;DHT22;9657;45.940;12.840;2022-12-20T06:50:11;10.10;71.50
19050;DHT22;9657;45.940;12.840;2022-12-20T06:52:38;10.10;71.50
19050;DHT22;9657;45.940;12.840;2022-12-20T06:55:06;10.10;71.50
19050;DHT22;9657;45.940;12.840;2022-12-20T06:57:33;10.10;71.50
19050;DHT22;9657;45.940;12.840;2022-12-20T07:00:02;10.10;71.50
19050;DHT22;9657;45.940;12.840;2022-12-20T07:02:29;10.10;71.50
19050;DHT22;9657;45.940;12.840;2022-12-20T07:04:56;10.10;71.50
19050;DHT22;9657;45.940;12.840;2022-12-20T07:07:23;10.10;71.50
19050;DHT22;9657;45.940;12.840;2022-12-20T07:09:50;10.10;71.50
19050;DHT22;9657;45.940;12.840;2022-12-20T07:12:17;10.10;71.60
19050;DHT22;9657;45.940;12.840;2022-12-20T07:14:44;10.10;71.60
19050;DHT22;9657;45.940;12.840;2022-12-20T07:17:13;10.10;71.80
19050;DHT22;9657;45.940;12.840;2022-12-20T07:19:40;10.10;71.80
19050;DHT22;9657;45.940;12.840;2022-12-20T07:22:08;10.10;71.80
19050;DHT22;9657;45.940;12.840;2022-12-20T07:24:35;10.10;71.80
19050;DHT22;9657;45.940;12.840;2022-12-20T07:27:02;10.10;71.80
19050;DHT22;9657;45.940;12.840;2022-12-20T07:29:29;10.10;71.80
19050;DHT22;9657;45.940;12.840;2022-12-20T07:31:56;10.10;71.80
19050;DHT22;9657;45.940;12.840;2022-12-20T07:34:24;10.10;71.80
19050;DHT22;9657;45.940;12.840;2022-12-20T07:36:51;10.10;71.80
19050;DHT22;9657;45.940;12.840;2022-12-20T07:39:18;10.10;71.70
19050;DHT22;9657;45.940;12.840;2022-12-20T07:41:45;10.10;72.50
19050;DHT22;9657;45.940;12.840;2022-12-20T07:44:12;10.10;71.70
19050;DHT22;9657;45.940;12.840;2022-12-20T07:46:39;10.10;71.60
19050;DHT22;9657;45.940;12.840;2022-12-20T07:49:07;10.10;71.60
19050;DHT22;9657;45.940;12.840;2022-12-20T07:51:38;10.10;71.60
19050;DHT22;9657;45.940;12.840;2022-12-20T07:54:11;10.10;71.50
19050;DHT22;9657;45.940;12.840;2022-12-20T07:56:41;10.10;71.50
19050;DHT22;9657;45.940;12.840;2022-12-20T07:59:09;10.10;71.50
19050;DHT22;9657;45.940;12.840;2022-12-20T08:01:37;10.10;71.50
19050;DHT22;9657;45.940;12.840;2022-12-20T08:04:07;10.10;71.50
19050;DHT22;9657;45.940;12.840;2022-12-20T08:06:38;10.10;71.60
19050;DHT22;9657;45.940;12.840;2022-12-20T08:09:05;10.10;71.60
19050;DHT22;9657;45.940;12.840;2022-12-20T08:11:33;10.00;71.50
19050;DHT22;9657;45.940;12.840;2022-12-20T08:14:02;10.10;71.60
19050;DHT22;9657;45.940;12.840;2022-12-20T08:16:30;10.10;71.60
19050;DHT22;9657;45.940;12.840;2022-12-20T08:18:58;10.00;71.50
19050;DHT22;9657;45.940;12.840;2022-12-20T08:21:25;10.10;71.60
19050;DHT22;9657;45.940;12.840;2022-12-20T08:23:53;10.10;71.60
19050;DHT22;9657;45.940;12.840;2022-12-20T08:26:21;10.10;71.60
19050;DHT22;9657;45.940;12.840;2022-12-20T08:28:48;10.10;71.50
19050;DHT22;9657;45.940;12.840;2022-12-20T08:31:15;10.00;71.50
19050;DHT22;9657;45.940;12.840;2022-12-20T08:33:42;10.10;71.60
19050;DHT22;9657;45.940;12.840;2022-12-20T08:36:11;10.00;71.50
19050;DHT22;9657;45.940;12.840;2022-12-20T08:38:39;10.00;71.50
19050;DHT22;9657;45.940;12.840;2022-12-20T08:41:09;10.00;71.50
19050;DHT22;9657;45.940;12.840;2022-12-20T08:43:38;10.10;71.60
19050;DHT22;9657;45.940;12.840;2022-12-20T08:46:05;10.10;71.50
19050;DHT22;9657;45.940;12.840;2022-12-20T08:48:33;10.10;71.60
19050;DHT22;9657;45.940;12.840;2022-12-20T08:51:02;10.00;71.50
19050;DHT22;9657;45.940;12.840;2022-12-20T08:53:30;10.00;71.50
19050;DHT22;9657;45.940;12.840;2022-12-20T08:56:03;10.10;71.60
19050;DHT22;9657;45.940;12.840;2022-12-20T08:58:32;10.10;71.60
19050;DHT22;9657;45.940;12.840;2022-12-20T09:01:00;10.10;71.60
19050;DHT22;9657;45.940;12.840;2022-12-20T09:03:28;10.00;71.60
19050;DHT22;9657;45.940;12.840;2022-12-20T09:05:56;10.10;71.60
19050;DHT22;9657;45.940;12.840;2022-12-20T09:08:23;10.10;71.50
19050;DHT22;9657;45.940;12.840;2022-12-20T09:10:51;10.10;71.60
19050;DHT22;9657;45.940;12.840;2022-12-20T09:13:18;10.10;71.50
19050;DHT22;9657;45.940;12.840;2022-12-20T09:15:47;10.00;71.50
19050;DHT22;9657;45.940;12.840;2022-12-20T09:18:14;10.10;71.50
19050;DHT22;9657;45.940;12.840;2022-12-20T09:20:42;10.10;71.50
19050;DHT22;9657;45.940;12.840;2022-12-20T09:23:10;10.00;71.50
19050;DHT22;9657;45.940;12.840;2022-12-20T09:25:37;10.00;71.50
19050;DHT22;9657;45.940;12.840;2022-12-20T09:28:04;10.10;71.50
19050;DHT22;9657;45.940;12.840;2022-12-20T09:30:31;10.00;71.40
19050;DHT22;9657;45.940;12.840;2022-12-20T09:33:00;10.10;71.50
19050;DHT22;9657;45.940;12.840;2022-12-20T09:35:27;10.00;71.50
19050;DHT22;9657;45.940;12.840;2022-12-20T09:37:54;10.10;71.50
19050;DHT22;9657;45.940;12.840;2022-12-20T09:40:26;10.10;71.50
19050;DHT22;9657;45.940;12.840;2022-12-20T09:42:54;10.10;71.50
19050;DHT22;9657;45.940;12.840;2022-12-20T09:45:26;10.00;71.40
19050;DHT22;9657;45.940;12.840;2022-12-20T09:47:53;10.10;71.50
19050;DHT22;9657;45.940;12.840;2022-12-20T09:50:31;10.10;71.50
19050;DHT22;9657;45.940;12.840;2022-12-20T09:53:11;10.10;71.40
19050;DHT22;9657;45.940;12.840;2022-12-20T09:55:45;10.10;71.50
19050;DHT22;9657;45.940;12.840;2022-12-20T09:58:23;10.10;71.40
19050;DHT22;9657;45.940;12.840;2022-12-20T10:00:53;10.00;71.40
19050;DHT22;9657;45.940;12.840;2022-12-20T10:03:22;10.10;71.50
19050;DHT22;9657;45.940;12.840;2022-12-20T10:05:54;10.00;71.40
19050;DHT22;9657;45.940;12.840;2022-12-20T10:08:39;10.10;71.50
19050;DHT22;9657;45.940;12.840;2022-12-20T10:11:13;10.10;71.40
19050;DHT22;9657;45.940;12.840;2022-12-20T10:13:53;10.10;71.40
19050;DHT22;9657;45.940;12.840;2022-12-20T10:16:34;10.10;71.40
19050;DHT22;9657;45.940;12.840;2022-12-20T10:19:16;10.10;71.40
19050;DHT22;9657;45.940;12.840;2022-12-20T10:21:51;10.10;71.40
19050;DHT22;9657;45.940;12.840;2022-12-20T10:24:26;10.00;71.30
19050;DHT22;9657;45.940;12.840;2022-12-20T10:26:55;10.10;71.40
19050;DHT22;9657;45.940;12.840;2022-12-20T10:29:24;10.10;71.50
19050;DHT22;9657;45.940;12.840;2022-12-20T10:31:52;10.10;71.60
19050;DHT22;9657;45.940;12.840;2022-12-20T10:34:20;10.10;71.60
19050;DHT22;9657;45.940;12.840;2022-12-20T10:36:50;10.10;72.00
19050;DHT22;9657;45.940;12.840;2022-12-20T10:39:40;10.10;71.60
19050;DHT22;9657;45.940;12.840;2022-12-20T10:42:24;10.10;71.60
19050;DHT22;9657;45.940;12.840;2022-12-20T10:44:52;10.10;71.60
19050;DHT22;9657;45.940;12.840;2022-12-20T10:47:32;10.10;71.50
19050;DHT22;9657;45.940;12.840;2022-12-20T10:50:11;10.10;71.60
19050;DHT22;9657;45.940;12.840;2022-12-20T10:52:40;10.10;71.50
19050;DHT22;9657;45.940;12.840;2022-12-20T10:55:32;10.10;71.50
19050;DHT22;9657;45.940;12.840;2022-12-20T10:58:02;10.10;71.50
19050;DHT22;9657;45.940;12.840;2022-12-20T11:00:31;10.10;71.40
19050;DHT22;9657;45.940;12.840;2022-12-20T11:03:04;10.10;71.50
19050;DHT22;9657;45.940;12.840;2022-12-20T11:05:33;10.10;71.40
19050;DHT22;9657;45.940;12.840;2022-12-20T11:08:13;10.10;71.40
19050;DHT22;9657;45.940;12.840;2022-12-20T11:10:41;10.10;71.40
19050;DHT22;9657;45.940;12.840;2022-12-20T11:13:20;10.10;71.40
19050;DHT22;9657;45.940;12.840;2022-12-20T11:15:48;10.10;71.40
19050;DHT22;9657;45.940;12.840;2022-12-20T11:18:21;10.10;71.40
19050;DHT22;9657;45.940;12.840;2022-12-20T11:20:56;10.10;71.40
19050;DHT22;9657;45.940;12.840;2022-12-20T11:23:36;10.10;71.40
19050;DHT22;9657;45.940;12.840;2022-12-20T11:26:19;10.10;71.40
19050;DHT22;9657;45.940;12.840;2022-12-20T11:28:59;10.10;71.40
19050;DHT22;9657;45.940;12.840;2022-12-20T11:31:36;10.10;71.40
19050;DHT22;9657;45.940;12.840;2022-12-20T11:34:18;10.10;71.50
19050;DHT22;9657;45.940;12.840;2022-12-20T11:37:03;10.10;71.50
19050;DHT22;9657;45.940;12.840;2022-12-20T11:39:54;10.10;71.40
19050;DHT22;9657;45.940;12.840;2022-12-20T11:42:27;10.10;71.40
19050;DHT22;9657;45.940;12.840;2022-12-20T11:45:03;10.10;71.40
19050;DHT22;9657;45.940;12.840;2022-12-20T11:47:53;10.10;71.40
19050;DHT22;9657;45.940;12.840;2022-12-20T11:50:42;10.10;71.30
19050;DHT22;9657;45.940;12.840;2022-12-20T11:53:15;10.10;71.40
19050;DHT22;9657;45.940;12.840;2022-12-20T11:55:48;10.10;71.40
19050;DHT22;9657;45.940;12.840;2022-12-20T11:58:20;10.10;71.40
19050;DHT22;9657;45.940;12.840;2022-12-20T12:00:53;10.10;71.30
19050;DHT22;9657;45.940;12.840;2022-12-20T12:03:27;10.10;72.10
19050;DHT22;9657;45.940;12.840;2022-12-20T12:05:58;10.10;71.30
19050;DHT22;9657;45.940;12.840;2022-12-20T12:08:30;10.10;71.30
19050;DHT22;9657;45.940;12.840;2022-12-20T12:11:07;10.10;71.30
19050;DHT22;9657;45.940;12.840;2022-12-20T12:13:39;10.10;71.40
19050;DHT22;9657;45.940;12.840;2022-12-20T12:16:09;10.10;71.40
19050;DHT22;9657;45.940;12.840;2022-12-20T12:18:37;10.10;71.30
19050;DHT22;9657;45.940;12.840;2022-12-20T12:21:10;10.10;71.30
19050;DHT22;9657;45.940;12.840;2022-12-20T12:23:46;10.20;71.40
19050;DHT22;9657;45.940;12.840;2022-12-20T12:26:19;10.10;71.30
19050;DHT22;9657;45.940;12.840;2022-12-20T12:28:52;10.20;71.30
19050;DHT22;9657;45.940;12.840;2022-12-20T12:31:24;10.10;71.30
19050;DHT22;9657;45.940;12.840;2022-12-20T12:34:03;10.10;71.30
19050;DHT22;9657;45.940;12.840;2022-12-20T12:36:56;10.10;71.30
19050;DHT22;9657;45.940;12.840;2022-12-20T12:39:59;10.10;71.30
19050;DHT22;9657;45.940;12.840;2022-12-20T12:42:51;10.10;71.20
19050;DHT22;9657;45.940;12.840;2022-12-20T12:45:25;10.10;71.20
19050;DHT22;9657;45.940;12.840;2022-12-20T12:47:56;10.20;71.30
19050;DHT22;9657;45.940;12.840;2022-12-20T12:50:28;10.10;71.30
19050;DHT22;9657;45.940;12.840;2022-12-20T12:52:57;10.10;71.20
19050;DHT22;9657;45.940;12.840;2022-12-20T12:55:39;10.20;71.30
19050;DHT22;9657;45.940;12.840;2022-12-20T13:01:04;10.10;71.30
19050;DHT22;9657;45.940;12.840;2022-12-20T13:03:45;10.20;71.30
19050;DHT22;9657;45.940;12.840;2022-12-20T13:09:39;10.10;71.30
19050;DHT22;9657;45.940;12.840;2022-12-20T13:15:48;10.20;71.30
19050;DHT22;9657;45.940;12.840;2022-12-20T13:18:23;10.20;71.30
19050;DHT22;9657;45.940;12.840;2022-12-20T13:27:37;10.20;71.30
19050;DHT22;9657;45.940;12.840;2022-12-20T13:30:23;10.20;71.30
19050;DHT22;9657;45.940;12.840;2022-12-20T13:35:56;10.20;71.30
19050;DHT22;9657;45.940;12.840;2022-12-20T13:38:49;10.20;71.30
19050;DHT22;9657;45.940;12.840;2022-12-20T13:41:36;10.20;71.30
19050;DHT22;9657;45.940;12.840;2022-12-20T13:44:34;10.20;71.20
19050;DHT22;9657;45.940;12.840;2022-12-20T13:47:33;10.20;71.20
19050;DHT22;9657;45.940;12.840;2022-12-20T13:50:24;10.20;71.20
19050;DHT22;9657;45.940;12.840;2022-12-20T13:52:53;10.20;71.20
19050;DHT22;9657;45.940;12.840;2022-12-20T13:55:26;10.20;71.30
19050;DHT22;9657;45.940;12.840;2022-12-20T13:57:57;10.20;71.20
19050;DHT22;9657;45.940;12.840;2022-12-20T14:00:29;10.20;71.30
19050;DHT22;9657;45.940;12.840;2022-12-20T14:02:56;10.20;71.10
19050;DHT22;9657;45.940;12.840;2022-12-20T14:05:26;10.20;71.20
19050;DHT22;9657;45.940;12.840;2022-12-20T14:07:59;10.20;71.10
19050;DHT22;9657;45.940;12.840;2022-12-20T14:10:28;10.20;71.10
19050;DHT22;9657;45.940;12.840;2022-12-20T14:12:56;10.20;71.20
19050;DHT22;9657;45.940;12.840;2022-12-20T14:15:26;10.20;71.20
19050;DHT22;9657;45.940;12.840;2022-12-20T14:17:53;10.20;71.10
19050;DHT22;9657;45.940;12.840;2022-12-20T14:20:25;10.20;71.20
19050;DHT22;9657;45.940;12.840;2022-12-20T14:22:57;10.20;71.20
19050;DHT22;9657;45.940;12.840;2022-12-20T14:25:34;10.20;71.30
19050;DHT22;9657;45.940;12.840;2022-12-20T14:28:03;10.20;71.40
19050;DHT22;9657;45.940;12.840;2022-12-20T14:30:34;10.20;71.50
19050;DHT22;9657;45.940;12.840;2022-12-20T14:33:02;10.20;71.40
19050;DHT22;9657;45.940;12.840;2022-12-20T14:35:30;10.20;71.40
19050;DHT22;9657;45.940;12.840;2022-12-20T14:37:59;10.20;71.50
19050;DHT22;9657;45.940;12.840;2022-12-20T14:40:28;10.20;71.50
19050;DHT22;9657;45.940;12.840;2022-12-20T14:42:55;10.20;71.50
19050;DHT22;9657;45.940;12.840;2022-12-20T14:45:25;10.20;71.50
19050;DHT22;9657;45.940;12.840;2022-12-20T14:47:58;10.20;71.50
19050;DHT22;9657;45.940;12.840;2022-12-20T14:50:31;10.20;71.50
19050;DHT22;9657;45.940;12.840;2022-12-20T14:52:59;10.20;71.50
19050;DHT22;9657;45.940;12.840;2022-12-20T14:55:34;10.20;71.50
19050;DHT22;9657;45.940;12.840;2022-12-20T14:58:20;10.20;71.50
19050;DHT22;9657;45.940;12.840;2022-12-20T15:00:55;10.20;71.50
19050;DHT22;9657;45.940;12.840;2022-12-20T15:03:23;10.20;71.50
19050;DHT22;9657;45.940;12.840;2022-12-20T15:05:52;10.20;71.50
19050;DHT22;9657;45.940;12.840;2022-12-20T15:08:22;10.20;71.50
19050;DHT22;9657;45.940;12.840;2022-12-20T15:10:57;10.20;71.50
19050;DHT22;9657;45.940;12.840;2022-12-20T15:13:28;10.20;71.50
19050;DHT22;9657;45.940;12.840;2022-12-20T15:15:58;10.20;71.50
19050;DHT22;9657;45.940;12.840;2022-12-20T15:18:25;10.20;71.50
19050;DHT22;9657;45.940;12.840;2022-12-20T15:21:05;10.20;71.50
19050;DHT22;9657;45.940;12.840;2022-12-20T15:23:33;10.20;71.50
19050;DHT22;9657;45.940;12.840;2022-12-20T15:26:00;10.20;71.50
19050;DHT22;9657;45.940;12.840;2022-12-20T15:28:27;10.20;71.50
19050;DHT22;9657;45.940;12.840;2022-12-20T15:30:54;10.20;71.50
19050;DHT22;9657;45.940;12.840;2022-12-20T15:33:23;10.20;71.50
19050;DHT22;9657;45.940;12.840;2022-12-20T15:35:51;10.20;71.50
19050;DHT22;9657;45.940;12.840;2022-12-20T15:38:22;10.20;71.50
19050;DHT22;9657;45.940;12.840;2022-12-20T15:40:53;10.20;71.50
19050;DHT22;9657;45.940;12.840;2022-12-20T15:43:22;10.20;71.50
19050;DHT22;9657;45.940;12.840;2022-12-20T15:45:51;10.20;71.40
19050;DHT22;9657;45.940;12.840;2022-12-20T15:48:20;10.20;71.50
19050;DHT22;9657;45.940;12.840;2022-12-20T15:50:50;10.20;71.50
19050;DHT22;9657;45.940;12.840;2022-12-20T15:53:22;10.20;71.50
19050;DHT22;9657;45.940;12.840;2022-12-20T15:55:50;10.20;71.50
19050;DHT22;9657;45.940;12.840;2022-12-20T15:58:18;10.20;71.50
19050;DHT22;9657;45.940;12.840;2022-12-20T16:00:45;10.20;71.50
19050;DHT22;9657;45.940;12.840;2022-12-20T16:03:17;10.20;71.50
19050;DHT22;9657;45.940;12.840;2022-12-20T16:05:46;10.20;71.50
19050;DHT22;9657;45.940;12.840;2022-12-20T16:08:13;10.20;71.50
19050;DHT22;9657;45.940;12.840;2022-12-20T16:10:42;10.20;71.50
19050;DHT22;9657;45.940;12.840;2022-12-20T16:13:13;10.20;71.60
19050;DHT22;9657;45.940;12.840;2022-12-20T16:15:40;10.20;71.60